Time;durP1;ratioP1;P1;durP2;ratioP2;P2;SDS_P1;SDS_P2;PMS_P1;PMS_P2;Temp;Humidity;BMP_temperature;BMP_pressure;BME280_temperature;BME280_humidity;BME280_pressure;Samples;Min_cycle;Max_cycle;Signal;HPM_P1;HPM_P2
2022/01/06 00:01:57;;;;;;;;;;;1.50;99.90;;;;;;5024081;28;19922;-72
2022/01/06 00:04:25;;;;;;;;;;;1.50;99.90;;;;;;5021144;28;19921;-73
2022/01/06 00:06:52;;;;;;;;;;;1.50;99.90;;;;;;5021043;28;20117;-72
2022/01/06 00:09:20;;;;;;;;;;;1.60;99.90;;;;;;5025673;28;20144;-72
2022/01/06 00:11:47;;;;;;;;;;;1.50;99.90;;;;;;5025789;28;19929;-72
2022/01/06 00:14:19;;;;;;;;;;;1.50;99.90;;;;;;5025192;28;19960;-72
2022/01/06 00:17:01;;;;;;;;;;;1.60;99.90;;;;;;5020037;28;19922;-72
2022/01/06 00:24:57;;;;;;;;;;;1.60;99.90;;;;;;5025044;28;19940;-73
2022/01/06 00:27:24;;;;;;;;;;;1.60;99.90;;;;;;5005114;28;19922;-73
2022/01/06 00:29:50;;;;;;;;;;;1.60;99.90;;;;;;5005068;28;19928;-73
2022/01/06 00:32:17;;;;;;;;;;;1.60;99.90;;;;;;5007666;28;19929;-73
2022/01/06 00:34:45;;;;;;;;;;;1.60;99.90;;;;;;5024327;28;19984;-73
2022/01/06 00:37:11;;;;;;;;;;;1.50;99.90;;;;;;5024545;28;19927;-73
2022/01/06 00:39:38;;;;;;;;;;;1.50;99.90;;;;;;5024734;28;19949;-73
2022/01/06 00:42:05;;;;;;;;;;;1.60;99.90;;;;;;5023114;28;19928;-73
2022/01/06 00:44:31;;;;;;;;;;;1.50;99.90;;;;;;5012200;28;20264;-73
2022/01/06 00:46:58;;;;;;;;;;;1.60;99.90;;;;;;5011189;28;20145;-73
2022/01/06 00:49:24;;;;;;;;;;;1.50;99.90;;;;;;5005325;28;19928;-72
2022/01/06 00:51:52;;;;;;;;;;;1.60;99.90;;;;;;5005365;28;19922;-73
2022/01/06 00:54:19;;;;;;;;;;;1.60;99.90;;;;;;5004319;28;20085;-73
2022/01/06 00:56:48;;;;;;;;;;;1.60;99.90;;;;;;5004874;28;19921;-73
2022/01/06 00:59:15;;;;;;;;;;;1.60;99.90;;;;;;5004402;28;19921;-73
2022/01/06 01:01:41;;;;;;;;;;;1.60;99.90;;;;;;5004046;28;19936;-73
2022/01/06 01:04:08;;;;;;;;;;;1.60;99.90;;;;;;5010359;28;20104;-73
2022/01/06 01:06:34;;;;;;;;;;;1.60;99.90;;;;;;5024005;28;19921;-73
2022/01/06 01:09:03;;;;;;;;;;;1.60;99.90;;;;;;5024029;28;19921;-73
2022/01/06 01:11:29;;;;;;;;;;;1.70;99.90;;;;;;5023858;28;19993;-73
2022/01/06 01:13:56;;;;;;;;;;;1.70;99.90;;;;;;5013306;28;20206;-73
2022/01/06 01:16:27;;;;;;;;;;;1.70;99.90;;;;;;5019759;28;19988;-73
2022/01/06 01:18:56;;;;;;;;;;;1.70;99.90;;;;;;5024247;28;20240;-72
2022/01/06 01:21:26;;;;;;;;;;;1.60;99.90;;;;;;5024414;28;19922;-72
2022/01/06 01:23:53;;;;;;;;;;;1.70;99.90;;;;;;5024091;28;19929;-73
2022/01/06 01:26:21;;;;;;;;;;;1.80;99.90;;;;;;5023633;28;19928;-72
2022/01/06 01:28:47;;;;;;;;;;;1.70;99.90;;;;;;5018719;28;19922;-72
2022/01/06 01:31:24;;;;;;;;;;;1.70;99.90;;;;;;5024172;28;20340;-72
2022/01/06 01:33:52;;;;;;;;;;;1.80;99.90;;;;;;5023953;28;19922;-73
2022/01/06 01:36:19;;;;;;;;;;;1.80;99.90;;;;;;5012256;28;19949;-72
2022/01/06 01:38:46;;;;;;;;;;;1.80;99.90;;;;;;5008246;28;19989;-73
2022/01/06 01:41:13;;;;;;;;;;;1.80;99.90;;;;;;5024154;28;19996;-72
2022/01/06 01:43:41;;;;;;;;;;;1.80;99.90;;;;;;5023708;28;19921;-72
2022/01/06 01:46:12;;;;;;;;;;;1.80;99.90;;;;;;5022146;28;19943;-72
2022/01/06 01:48:42;;;;;;;;;;;1.70;99.90;;;;;;5020097;28;20068;-72
2022/01/06 01:51:09;;;;;;;;;;;1.80;99.90;;;;;;5024165;28;19959;-72
2022/01/06 01:53:36;;;;;;;;;;;1.70;99.90;;;;;;5023791;28;19927;-72
2022/01/06 01:56:05;;;;;;;;;;;1.70;99.90;;;;;;5015982;28;19922;-73
2022/01/06 01:58:32;;;;;;;;;;;1.70;99.90;;;;;;5024039;28;19956;-72
2022/01/06 02:01:00;;;;;;;;;;;1.80;99.90;;;;;;5023976;28;20155;-72
2022/01/06 02:03:27;;;;;;;;;;;1.80;99.90;;;;;;5023546;28;20217;-72
2022/01/06 02:05:53;;;;;;;;;;;1.70;99.90;;;;;;5019000;28;19944;-73
2022/01/06 02:08:20;;;;;;;;;;;1.60;99.90;;;;;;5023565;28;19922;-72
2022/01/06 02:10:46;;;;;;;;;;;1.60;99.90;;;;;;5023572;28;20209;-73
2022/01/06 02:13:15;;;;;;;;;;;1.60;99.90;;;;;;5024312;28;19921;-72
2022/01/06 02:15:41;;;;;;;;;;;1.60;99.90;;;;;;5026961;28;19943;-72
2022/01/06 02:18:09;;;;;;;;;;;1.60;99.90;;;;;;5027137;28;19964;-72
2022/01/06 02:20:37;;;;;;;;;;;1.60;99.90;;;;;;5022320;28;20231;-73
2022/01/06 02:23:04;;;;;;;;;;;1.70;99.90;;;;;;5027523;28;20232;-72
2022/01/06 02:25:31;;;;;;;;;;;1.70;99.90;;;;;;5025155;28;20113;-72
2022/01/06 02:28:00;;;;;;;;;;;1.70;99.90;;;;;;5024354;28;19921;-72
2022/01/06 02:30:27;;;;;;;;;;;1.70;99.90;;;;;;5027238;28;19936;-72
2022/01/06 02:32:54;;;;;;;;;;;1.60;99.90;;;;;;5027176;28;19921;-72
2022/01/06 02:35:22;;;;;;;;;;;1.70;99.90;;;;;;5025795;28;19933;-72
2022/01/06 02:37:50;;;;;;;;;;;1.70;99.90;;;;;;5015224;28;19932;-73
2022/01/06 02:40:18;;;;;;;;;;;1.70;99.90;;;;;;5026977;28;20323;-72
2022/01/06 02:42:47;;;;;;;;;;;1.70;99.90;;;;;;5026917;28;19921;-72
2022/01/06 02:45:14;;;;;;;;;;;1.70;99.90;;;;;;5028064;28;19921;-74
2022/01/06 02:47:41;;;;;;;;;;;1.70;99.90;;;;;;5026337;28;19921;-72
2022/01/06 02:50:08;;;;;;;;;;;1.70;99.90;;;;;;5020318;28;19922;-72
2022/01/06 02:52:35;;;;;;;;;;;1.70;99.90;;;;;;5007270;28;19922;-72
2022/01/06 02:55:03;;;;;;;;;;;1.70;99.90;;;;;;5041665;23;20212;-71
2022/01/06 02:57:30;;;;;;;;;;;1.70;99.90;;;;;;5039590;28;19925;-71
2022/01/06 02:59:56;;;;;;;;;;;1.70;99.90;;;;;;5046889;28;19921;-71
2022/01/06 03:02:24;;;;;;;;;;;1.70;99.90;;;;;;5046370;28;19928;-71
2022/01/06 03:04:51;;;;;;;;;;;1.80;99.90;;;;;;5045790;28;19921;-72
2022/01/06 03:07:17;;;;;;;;;;;1.70;99.90;;;;;;5044159;28;20123;-71
2022/01/06 03:09:50;;;;;;;;;;;1.70;99.90;;;;;;5046374;28;19928;-71
2022/01/06 03:12:23;;;;;;;;;;;1.70;99.90;;;;;;5046666;28;19921;-71
2022/01/06 03:14:50;;;;;;;;;;;1.70;99.90;;;;;;5046091;28;19982;-71
2022/01/06 03:17:17;;;;;;;;;;;1.70;99.90;;;;;;5041921;28;19928;-71
2022/01/06 03:19:43;;;;;;;;;;;1.70;99.90;;;;;;5046458;28;19921;-71
2022/01/06 03:22:10;;;;;;;;;;;1.70;99.90;;;;;;5036112;28;19922;-71
2022/01/06 03:24:36;;;;;;;;;;;1.70;99.90;;;;;;5035914;28;19921;-71
2022/01/06 03:27:03;;;;;;;;;;;1.80;99.90;;;;;;5043588;28;19927;-71
2022/01/06 03:29:31;;;;;;;;;;;1.70;99.90;;;;;;5045965;28;20212;-71
2022/01/06 03:31:58;;;;;;;;;;;1.70;99.90;;;;;;5046326;28;19928;-71
2022/01/06 03:34:26;;;;;;;;;;;1.60;99.90;;;;;;5045812;28;19935;-71
2022/01/06 03:36:52;;;;;;;;;;;1.60;99.90;;;;;;5041643;28;19921;-71
2022/01/06 03:39:19;;;;;;;;;;;1.60;99.90;;;;;;5046295;28;19921;-71
2022/01/06 03:41:46;;;;;;;;;;;1.50;99.90;;;;;;5046006;28;19928;-71
2022/01/06 03:44:13;;;;;;;;;;;1.50;99.90;;;;;;5045711;28;19921;-71
2022/01/06 03:46:41;;;;;;;;;;;1.60;99.90;;;;;;5043126;28;19921;-71
2022/01/06 03:49:08;;;;;;;;;;;1.50;99.90;;;;;;5043451;28;19925;-71
2022/01/06 03:51:34;;;;;;;;;;;1.50;99.90;;;;;;5045634;28;20124;-71
2022/01/06 03:54:01;;;;;;;;;;;1.50;99.90;;;;;;5045517;28;19928;-70
2022/01/06 03:56:27;;;;;;;;;;;1.50;99.90;;;;;;5040467;28;19921;-71
2022/01/06 03:58:54;;;;;;;;;;;1.50;99.90;;;;;;5045809;28;19927;-71
2022/01/06 04:01:20;;;;;;;;;;;1.50;99.90;;;;;;5045375;28;19924;-71
2022/01/06 04:03:49;;;;;;;;;;;1.50;99.90;;;;;;5045452;28;19928;-71
2022/01/06 04:06:15;;;;;;;;;;;1.50;99.90;;;;;;5045078;28;19921;-71
2022/01/06 04:08:42;;;;;;;;;;;1.50;99.90;;;;;;5044809;28;19920;-71
2022/01/06 04:11:08;;;;;;;;;;;1.50;99.90;;;;;;5044949;28;20209;-71
2022/01/06 04:13:35;;;;;;;;;;;1.60;99.90;;;;;;5042929;28;19921;-70
2022/01/06 04:16:03;;;;;;;;;;;1.60;99.90;;;;;;5042446;28;19960;-71
2022/01/06 04:18:29;;;;;;;;;;;1.60;99.90;;;;;;5045005;28;19960;-70
2022/01/06 04:20:57;;;;;;;;;;;1.60;99.90;;;;;;5045364;28;19921;-71
2022/01/06 04:23:24;;;;;;;;;;;1.50;99.90;;;;;;5044814;28;19921;-71
2022/01/06 04:25:50;;;;;;;;;;;1.60;99.90;;;;;;5044059;28;19921;-71
2022/01/06 04:28:17;;;;;;;;;;;1.60;99.90;;;;;;5042244;28;19937;-70
2022/01/06 04:30:44;;;;;;;;;;;1.60;99.90;;;;;;5045241;28;19925;-71
2022/01/06 04:33:10;;;;;;;;;;;1.60;99.90;;;;;;5044941;28;20208;-71
2022/01/06 04:35:37;;;;;;;;;;;1.60;99.90;;;;;;5042911;28;20127;-70
2022/01/06 04:38:05;;;;;;;;;;;1.60;99.90;;;;;;5024632;28;19922;-71
2022/01/06 04:40:31;;;;;;;;;;;1.60;99.90;;;;;;5025008;28;19928;-71
2022/01/06 04:42:58;;;;;;;;;;;1.60;99.90;;;;;;5025153;28;19925;-71
2022/01/06 04:45:25;;;;;;;;;;;1.60;99.90;;;;;;5024217;28;20124;-71
2022/01/06 04:47:51;;;;;;;;;;;1.50;99.90;;;;;;5031003;28;19925;-71
2022/01/06 04:50:18;;;;;;;;;;;1.50;99.90;;;;;;5044161;28;19984;-71
2022/01/06 04:52:44;;;;;;;;;;;1.50;99.90;;;;;;5044798;28;20139;-71
2022/01/06 04:55:12;;;;;;;;;;;1.50;99.90;;;;;;5043734;28;19921;-71
2022/01/06 04:57:39;;;;;;;;;;;1.50;99.90;;;;;;5042217;28;19921;-71
2022/01/06 05:00:07;;;;;;;;;;;1.40;99.90;;;;;;5044743;28;19925;-71
2022/01/06 05:02:33;;;;;;;;;;;1.40;99.90;;;;;;5044681;28;19924;-71
2022/01/06 05:05:00;;;;;;;;;;;1.40;99.90;;;;;;5044058;28;19921;-72
2022/01/06 05:07:27;;;;;;;;;;;1.40;99.90;;;;;;5042633;28;19929;-71
2022/01/06 05:09:53;;;;;;;;;;;1.40;99.90;;;;;;5036764;28;19925;-71
2022/01/06 05:12:22;;;;;;;;;;;1.40;99.90;;;;;;5024678;28;20120;-71
2022/01/06 05:14:48;;;;;;;;;;;1.40;99.90;;;;;;5024276;28;19940;-71
2022/01/06 05:17:15;;;;;;;;;;;1.40;99.90;;;;;;5035334;28;20171;-71
2022/01/06 05:19:41;;;;;;;;;;;1.40;99.90;;;;;;5044084;28;19921;-71
2022/01/06 05:22:08;;;;;;;;;;;1.40;99.90;;;;;;5034564;28;19947;-71
2022/01/06 05:24:37;;;;;;;;;;;1.40;99.90;;;;;;5033861;28;19928;-72
2022/01/06 05:27:04;;;;;;;;;;;1.40;99.90;;;;;;5042803;28;20116;-71
2022/01/06 05:29:32;;;;;;;;;;;1.30;99.90;;;;;;5043401;28;19963;-71
2022/01/06 05:31:59;;;;;;;;;;;1.30;99.90;;;;;;5043471;28;19959;-71
2022/01/06 05:34:25;;;;;;;;;;;1.30;99.90;;;;;;5038861;28;19927;-71
2022/01/06 05:36:52;;;;;;;;;;;1.30;99.90;;;;;;5039092;28;19925;-71
2022/01/06 05:39:19;;;;;;;;;;;1.30;99.90;;;;;;5043668;28;19921;-71
2022/01/06 05:41:46;;;;;;;;;;;1.30;99.90;;;;;;5043985;28;19921;-71
2022/01/06 05:44:13;;;;;;;;;;;1.30;99.90;;;;;;5043517;28;19960;-71
2022/01/06 05:46:41;;;;;;;;;;;1.30;99.90;;;;;;5042691;28;19984;-72
2022/01/06 05:49:07;;;;;;;;;;;1.30;99.90;;;;;;5040655;28;19962;-71
2022/01/06 05:51:34;;;;;;;;;;;1.40;99.90;;;;;;5043597;28;19921;-71
2022/01/06 05:54:00;;;;;;;;;;;1.40;99.90;;;;;;5043475;28;19943;-71
2022/01/06 05:56:28;;;;;;;;;;;1.40;99.90;;;;;;5043080;28;19921;-71
2022/01/06 05:58:55;;;;;;;;;;;1.30;99.90;;;;;;5043071;28;20204;-71
2022/01/06 06:01:21;;;;;;;;;;;1.30;99.90;;;;;;5040707;28;19925;-71
2022/01/06 06:03:50;;;;;;;;;;;1.30;99.90;;;;;;5043373;28;19927;-71
2022/01/06 06:06:16;;;;;;;;;;;1.40;99.90;;;;;;5043088;28;19983;-71
2022/01/06 06:08:43;;;;;;;;;;;1.40;99.90;;;;;;5042783;28;19927;-71
2022/01/06 06:11:09;;;;;;;;;;;1.40;99.90;;;;;;5043026;28;20327;-70
2022/01/06 06:13:36;;;;;;;;;;;1.40;99.90;;;;;;5038053;28;20109;-71
2022/01/06 06:16:03;;;;;;;;;;;1.40;99.90;;;;;;5023757;28;19944;-71
2022/01/06 06:18:29;;;;;;;;;;;1.40;99.90;;;;;;5042313;28;19928;-71
2022/01/06 06:20:57;;;;;;;;;;;1.40;99.90;;;;;;5042493;28;19921;-71
2022/01/06 06:23:24;;;;;;;;;;;1.30;99.90;;;;;;5043524;28;20159;-71
2022/01/06 06:25:50;;;;;;;;;;;1.30;99.90;;;;;;5042645;28;19921;-71
2022/01/06 06:28:17;;;;;;;;;;;1.30;99.90;;;;;;5042571;28;19921;-70
2022/01/06 06:30:43;;;;;;;;;;;1.30;99.90;;;;;;5042626;28;19960;-71
2022/01/06 06:33:10;;;;;;;;;;;1.30;99.90;;;;;;5041302;28;19921;-70
2022/01/06 06:35:38;;;;;;;;;;;1.30;99.90;;;;;;5023257;28;19921;-70
2022/01/06 06:38:06;;;;;;;;;;;1.30;99.90;;;;;;5032563;28;19929;-70
2022/01/06 06:40:32;;;;;;;;;;;1.30;99.90;;;;;;5043242;28;20227;-71
2022/01/06 06:43:00;;;;;;;;;;;1.30;99.90;;;;;;5042949;28;19927;-71
2022/01/06 06:45:26;;;;;;;;;;;1.30;99.90;;;;;;5042559;28;20204;-70
2022/01/06 06:47:53;;;;;;;;;;;1.30;99.90;;;;;;5042385;28;19921;-71
2022/01/06 06:50:21;;;;;;;;;;;1.20;99.90;;;;;;5036295;28;19921;-70
2022/01/06 06:52:48;;;;;;;;;;;1.30;99.90;;;;;;5038927;28;19944;-71
2022/01/06 06:55:16;;;;;;;;;;;1.30;99.90;;;;;;5042464;28;19921;-71
2022/01/06 06:57:42;;;;;;;;;;;1.30;99.90;;;;;;5042256;28;19921;-70
2022/01/06 07:00:10;;;;;;;;;;;1.20;99.90;;;;;;5042046;28;19921;-70
2022/01/06 07:02:37;;;;;;;;;;;1.20;99.90;;;;;;5026678;28;19921;-70
2022/01/06 07:05:04;;;;;;;;;;;1.30;99.90;;;;;;5026393;28;19921;-71
2022/01/06 07:07:30;;;;;;;;;;;1.30;99.90;;;;;;5037186;28;19921;-70
2022/01/06 07:09:57;;;;;;;;;;;1.30;99.90;;;;;;5044175;28;19927;-70
2022/01/06 07:12:25;;;;;;;;;;;1.30;99.90;;;;;;5046587;28;19940;-70
2022/01/06 07:14:51;;;;;;;;;;;1.20;99.90;;;;;;5046119;28;19921;-71
2022/01/06 07:17:18;;;;;;;;;;;1.30;99.90;;;;;;5041101;28;20216;-70
2022/01/06 07:19:44;;;;;;;;;;;1.20;99.90;;;;;;5046177;28;19927;-70
2022/01/06 07:22:11;;;;;;;;;;;1.30;99.90;;;;;;5046160;28;20212;-70
2022/01/06 07:24:38;;;;;;;;;;;1.30;99.90;;;;;;5045950;28;19921;-71
2022/01/06 07:27:05;;;;;;;;;;;1.30;99.90;;;;;;5044938;28;19921;-70
2022/01/06 07:29:33;;;;;;;;;;;1.30;99.90;;;;;;5041566;28;19922;-70
2022/01/06 07:31:59;;;;;;;;;;;1.30;99.90;;;;;;5026488;28;19921;-69
2022/01/06 07:34:26;;;;;;;;;;;1.30;99.90;;;;;;5025903;28;20223;-70
2022/01/06 07:36:52;;;;;;;;;;;1.40;99.90;;;;;;5033448;28;19921;-71
2022/01/06 07:39:19;;;;;;;;;;;1.40;99.90;;;;;;5046143;28;19921;-70
2022/01/06 07:41:45;;;;;;;;;;;1.40;99.90;;;;;;5046070;28;19925;-70
2022/01/06 07:44:12;;;;;;;;;;;1.40;99.90;;;;;;5045662;28;19929;-71
2022/01/06 07:46:42;;;;;;;;;;;1.40;99.90;;;;;;5040646;28;20131;-71
2022/01/06 07:49:08;;;;;;;;;;;1.40;99.90;;;;;;5045635;28;19928;-70
2022/01/06 07:51:35;;;;;;;;;;;1.30;99.90;;;;;;5045578;28;20212;-70
2022/01/06 07:54:02;;;;;;;;;;;1.30;99.90;;;;;;5045069;28;19928;-70
2022/01/06 07:56:28;;;;;;;;;;;1.30;99.90;;;;;;5044851;28;19927;-71
2022/01/06 07:58:55;;;;;;;;;;;1.30;99.90;;;;;;5043526;28;20104;-70
2022/01/06 08:01:22;;;;;;;;;;;1.40;99.90;;;;;;5025768;28;19921;-70
2022/01/06 08:03:50;;;;;;;;;;;1.40;99.90;;;;;;5025191;28;19922;-72
2022/01/06 08:06:16;;;;;;;;;;;1.40;99.90;;;;;;5031368;28;19936;-70
2022/01/06 08:08:43;;;;;;;;;;;1.40;99.90;;;;;;5038721;28;19921;-71
2022/01/06 08:11:10;;;;;;;;;;;1.50;99.90;;;;;;5025004;28;19928;-70
2022/01/06 08:13:42;;;;;;;;;;;1.50;99.90;;;;;;5025222;28;20120;-70
2022/01/06 08:16:08;;;;;;;;;;;1.50;99.90;;;;;;5026400;28;19956;-70
2022/01/06 08:18:35;;;;;;;;;;;1.50;99.90;;;;;;5045343;28;19921;-69
2022/01/06 08:21:03;;;;;;;;;;;1.60;99.90;;;;;;5045035;28;19921;-70
2022/01/06 08:23:36;;;;;;;;;;;1.60;99.90;;;;;;5044743;28;19925;-70
2022/01/06 08:26:03;;;;;;;;;;;1.60;99.90;;;;;;5044419;28;20217;-70
2022/01/06 08:28:30;;;;;;;;;;;1.70;99.90;;;;;;5044993;28;19980;-70
2022/01/06 08:30:56;;;;;;;;;;;1.80;99.90;;;;;;5045049;28;19936;-70
2022/01/06 08:33:23;;;;;;;;;;;1.80;99.90;;;;;;5044811;28;20123;-70
2022/01/06 08:35:50;;;;;;;;;;;1.80;99.90;;;;;;5044627;28;20093;-69
2022/01/06 08:38:17;;;;;;;;;;;1.80;99.90;;;;;;5044602;28;19944;-69
2022/01/06 08:40:44;;;;;;;;;;;1.70;99.90;;;;;;5030131;28;19922;-69
2022/01/06 08:43:11;;;;;;;;;;;1.70;99.90;;;;;;5024778;28;19921;-69
2022/01/06 08:45:37;;;;;;;;;;;1.80;99.90;;;;;;5026703;28;19921;-69
2022/01/06 08:48:04;;;;;;;;;;;1.70;99.90;;;;;;5044558;28;20280;-69
2022/01/06 08:50:37;;;;;;;;;;;1.80;99.90;;;;;;5043849;28;19921;-69
2022/01/06 08:53:04;;;;;;;;;;;1.80;99.90;;;;;;5025035;28;20101;-70
2022/01/06 08:55:32;;;;;;;;;;;1.80;99.90;;;;;;5054830;22;19920;-72
2022/01/06 08:57:58;;;;;;;;;;;1.80;99.90;;;;;;5024533;28;19921;-71
2022/01/06 09:00:25;;;;;;;;;;;1.80;99.90;;;;;;5024312;28;20224;-72
2022/01/06 09:02:52;;;;;;;;;;;1.80;99.90;;;;;;5024734;28;20107;-75
2022/01/06 09:05:18;;;;;;;;;;;1.90;99.90;;;;;;5024135;28;19922;-74
2022/01/06 09:07:45;;;;;;;;;;;1.80;99.90;;;;;;5041592;28;19928;-73
2022/01/06 09:10:12;;;;;;;;;;;1.80;99.90;;;;;;5044404;28;19928;-74
2022/01/06 09:12:40;;;;;;;;;;;1.80;99.90;;;;;;5044521;28;20093;-75
2022/01/06 09:15:07;;;;;;;;;;;1.90;99.90;;;;;;5043806;28;19927;-74
2022/01/06 09:17:36;;;;;;;;;;;1.90;99.90;;;;;;5042092;28;19921;-74
2022/01/06 09:20:03;;;;;;;;;;;1.90;99.90;;;;;;5026130;28;20232;-74
2022/01/06 09:22:30;;;;;;;;;;;1.90;99.90;;;;;;5043969;28;19928;-75
2022/01/06 09:24:57;;;;;;;;;;;1.90;99.90;;;;;;5043027;28;19921;-75
2022/01/06 09:27:24;;;;;;;;;;;1.90;99.90;;;;;;5043170;28;19921;-74
2022/01/06 09:29:53;;;;;;;;;;;1.90;99.90;;;;;;5037892;28;19944;-74
2022/01/06 09:32:19;;;;;;;;;;;2.00;99.90;;;;;;5041641;28;19927;-72
2022/01/06 09:34:46;;;;;;;;;;;2.00;99.90;;;;;;5043609;28;19921;-72
2022/01/06 09:37:13;;;;;;;;;;;2.00;99.90;;;;;;5042635;28;19928;-72
2022/01/06 09:39:40;;;;;;;;;;;2.00;99.90;;;;;;5042860;28;19960;-74
2022/01/06 09:42:07;;;;;;;;;;;2.10;99.90;;;;;;5040781;28;19921;-74
2022/01/06 09:44:33;;;;;;;;;;;2.10;99.90;;;;;;5043529;28;19922;-75
2022/01/06 09:47:02;;;;;;;;;;;2.10;99.90;;;;;;5043273;28;19921;-72
2022/01/06 09:49:29;;;;;;;;;;;2.20;99.90;;;;;;5039453;28;20303;-74
2022/01/06 09:51:55;;;;;;;;;;;2.20;99.90;;;;;;5043775;28;19928;-75
2022/01/06 09:54:22;;;;;;;;;;;2.20;99.90;;;;;;5043717;28;19922;-75
2022/01/06 09:56:49;;;;;;;;;;;2.20;99.90;;;;;;5039094;28;19921;-74
2022/01/06 09:59:16;;;;;;;;;;;2.30;99.90;;;;;;5043626;28;19921;-74
2022/01/06 10:01:43;;;;;;;;;;;2.30;99.90;;;;;;5043542;28;19921;-74
2022/01/06 10:04:19;;;;;;;;;;;2.30;99.90;;;;;;5043262;28;19929;-74
2022/01/06 10:06:57;;;;;;;;;;;2.30;99.90;;;;;;5042948;28;20148;-74
2022/01/06 10:09:24;;;;;;;;;;;2.40;99.90;;;;;;5043552;28;19921;-74
2022/01/06 10:11:54;;;;;;;;;;;2.40;99.90;;;;;;5043566;28;19943;-73
2022/01/06 10:14:30;;;;;;;;;;;2.40;99.90;;;;;;5043442;28;19928;-74
2022/01/06 10:16:57;;;;;;;;;;;2.40;99.90;;;;;;5043642;28;19921;-73
2022/01/06 10:19:25;;;;;;;;;;;2.40;99.90;;;;;;5042579;28;19922;-74
2022/01/06 10:21:57;;;;;;;;;;;2.40;99.90;;;;;;5043753;28;19925;-74
2022/01/06 10:24:25;;;;;;;;;;;2.50;99.90;;;;;;5032303;28;19921;-74
2022/01/06 10:26:53;;;;;;;;;;;2.50;99.90;;;;;;5043572;28;19931;-73
2022/01/06 10:29:19;;;;;;;;;;;2.50;99.90;;;;;;5043553;28;19921;-73
2022/01/06 10:31:47;;;;;;;;;;;2.60;99.90;;;;;;5043661;28;19921;-74
2022/01/06 10:34:13;;;;;;;;;;;2.60;99.90;;;;;;5043645;28;19964;-74
2022/01/06 10:36:42;;;;;;;;;;;2.60;99.90;;;;;;5047278;28;19988;-74
2022/01/06 10:39:09;;;;;;;;;;;2.60;99.90;;;;;;5037179;28;19922;-74
2022/01/06 10:41:36;;;;;;;;;;;2.60;99.90;;;;;;5042109;28;19921;-74
2022/01/06 10:44:03;;;;;;;;;;;2.60;99.90;;;;;;5046275;28;19925;-76
2022/01/06 10:46:31;;;;;;;;;;;2.60;99.90;;;;;;5044005;28;20266;-74
2022/01/06 10:48:58;;;;;;;;;;;2.60;99.90;;;;;;5045560;28;19921;-75
2022/01/06 10:51:32;;;;;;;;;;;2.60;99.90;;;;;;5045792;28;19944;-75
2022/01/06 10:54:00;;;;;;;;;;;2.70;99.90;;;;;;5046172;28;20107;-75
2022/01/06 10:56:27;;;;;;;;;;;2.70;99.90;;;;;;5045860;28;19927;-75
2022/01/06 10:58:56;;;;;;;;;;;2.70;99.90;;;;;;5038405;28;19921;-75
2022/01/06 11:01:22;;;;;;;;;;;2.80;99.90;;;;;;5038442;28;19925;-75
2022/01/06 11:03:49;;;;;;;;;;;2.90;99.90;;;;;;5045140;28;19928;-75
2022/01/06 11:06:15;;;;;;;;;;;2.80;99.90;;;;;;5046284;28;20144;-73
2022/01/06 11:08:43;;;;;;;;;;;2.80;99.90;;;;;;5043940;28;19921;-72
2022/01/06 11:11:28;;;;;;;;;;;2.90;99.90;;;;;;5045664;28;19925;-73
2022/01/06 11:13:54;;;;;;;;;;;3.00;99.90;;;;;;5041813;28;19928;-72
2022/01/06 11:16:22;;;;;;;;;;;3.10;99.90;;;;;;5045832;28;20111;-72
2022/01/06 11:18:50;;;;;;;;;;;3.10;99.90;;;;;;5045919;28;19979;-71
2022/01/06 11:21:18;;;;;;;;;;;3.20;99.90;;;;;;5046615;28;19921;-78
2022/01/06 11:23:47;;;;;;;;;;;3.10;99.90;;;;;;5043100;28;19929;-75
2022/01/06 11:26:17;;;;;;;;;;;3.20;99.90;;;;;;5046462;28;19921;-75
2022/01/06 11:28:45;;;;;;;;;;;3.20;99.90;;;;;;5045392;28;19928;-74
2022/01/06 11:31:15;;;;;;;;;;;3.30;99.90;;;;;;5045670;28;19945;-75
2022/01/06 11:33:42;;;;;;;;;;;3.30;99.90;;;;;;5045407;28;19928;-74
2022/01/06 11:36:18;;;;;;;;;;;3.20;99.90;;;;;;5045402;28;19928;-75
2022/01/06 11:38:45;;;;;;;;;;;3.20;99.90;;;;;;5042010;28;20112;-75
2022/01/06 11:41:12;;;;;;;;;;;3.30;99.90;;;;;;5045850;28;20172;-75
2022/01/06 11:43:41;;;;;;;;;;;3.30;99.90;;;;;;5044920;28;19921;-75
2022/01/06 11:46:08;;;;;;;;;;;3.30;99.90;;;;;;5044661;28;19943;-74
2022/01/06 11:48:44;;;;;;;;;;;3.30;99.90;;;;;;5045942;28;19927;-75
2022/01/06 11:51:21;;;;;;;;;;;3.40;99.90;;;;;;5025900;28;19927;-75
2022/01/06 11:53:48;;;;;;;;;;;3.30;99.90;;;;;;5043472;28;19929;-75
2022/01/06 11:56:14;;;;;;;;;;;3.30;99.90;;;;;;5045090;28;20212;-75
2022/01/06 11:58:42;;;;;;;;;;;3.30;99.90;;;;;;5025996;28;19928;-75
2022/01/06 12:01:13;;;;;;;;;;;3.30;99.90;;;;;;5026010;28;19921;-75
2022/01/06 12:03:41;;;;;;;;;;;3.30;99.90;;;;;;5025425;28;19928;-75
2022/01/06 12:06:08;;;;;;;;;;;3.30;99.90;;;;;;5025793;28;19921;-73
2022/01/06 12:08:37;;;;;;;;;;;3.30;99.90;;;;;;5025810;28;19921;-75
2022/01/06 12:11:04;;;;;;;;;;;3.30;99.90;;;;;;5040117;28;20201;-75
2022/01/06 12:13:30;;;;;;;;;;;3.30;99.90;;;;;;5044025;28;19921;-74
2022/01/06 12:16:01;;;;;;;;;;;3.30;99.90;;;;;;5044741;28;19921;-75
2022/01/06 12:18:28;;;;;;;;;;;3.40;99.90;;;;;;5045150;28;19980;-75
2022/01/06 12:20:55;;;;;;;;;;;3.40;99.90;;;;;;5044340;28;20212;-75
2022/01/06 12:23:22;;;;;;;;;;;3.40;99.90;;;;;;5044844;28;19929;-73
2022/01/06 12:25:55;;;;;;;;;;;3.40;99.90;;;;;;5043530;28;19927;-75
2022/01/06 12:28:29;;;;;;;;;;;3.50;99.90;;;;;;5041968;28;19921;-75
2022/01/06 12:30:59;;;;;;;;;;;3.40;99.90;;;;;;5044904;28;20226;-74
2022/01/06 12:33:25;;;;;;;;;;;3.50;99.90;;;;;;5045047;28;19984;-75
2022/01/06 12:35:54;;;;;;;;;;;3.50;99.90;;;;;;5042879;28;19921;-75
2022/01/06 12:38:26;;;;;;;;;;;3.50;99.90;;;;;;5044860;28;19960;-75
2022/01/06 12:40:53;;;;;;;;;;;3.60;99.90;;;;;;5045125;28;19921;-75
2022/01/06 12:43:20;;;;;;;;;;;3.70;99.90;;;;;;5044966;28;19921;-75
2022/01/06 12:45:48;;;;;;;;;;;3.70;99.90;;;;;;5043086;28;19921;-74
2022/01/06 12:48:15;;;;;;;;;;;3.80;99.90;;;;;;5044455;28;19925;-75
2022/01/06 12:50:47;;;;;;;;;;;4.00;99.90;;;;;;5044800;28;19921;-75
2022/01/06 12:53:24;;;;;;;;;;;4.20;99.90;;;;;;5044712;28;19979;-75
2022/01/06 12:55:51;;;;;;;;;;;4.30;99.90;;;;;;5043612;28;19921;-75
2022/01/06 12:58:23;;;;;;;;;;;4.40;99.90;;;;;;5043534;28;19924;-74
2022/01/06 13:00:52;;;;;;;;;;;4.40;99.90;;;;;;5044388;28;20093;-75
2022/01/06 13:03:27;;;;;;;;;;;4.50;99.90;;;;;;5044868;28;19921;-75
2022/01/06 13:05:54;;;;;;;;;;;4.70;99.90;;;;;;5043543;28;19928;-72
2022/01/06 13:08:20;;;;;;;;;;;4.80;99.90;;;;;;5044208;28;19921;-73
2022/01/06 13:10:47;;;;;;;;;;;4.90;99.90;;;;;;5044338;28;19928;-75
2022/01/06 13:13:14;;;;;;;;;;;4.70;99.90;;;;;;5044378;28;19921;-75
2022/01/06 13:15:40;;;;;;;;;;;4.60;99.90;;;;;;5043764;28;19933;-75
2022/01/06 13:18:07;;;;;;;;;;;4.50;99.90;;;;;;5043715;28;19992;-73
2022/01/06 13:20:38;;;;;;;;;;;4.40;99.90;;;;;;5043899;28;19972;-73
2022/01/06 13:23:41;;;;;;;;;;;4.20;99.90;;;;;;5044306;28;19921;-73
2022/01/06 13:26:09;;;;;;;;;;;4.10;99.90;;;;;;5036055;28;19921;-73
2022/01/06 13:28:40;;;;;;;;;;;4.00;99.90;;;;;;5042281;28;20285;-73
2022/01/06 13:31:15;;;;;;;;;;;4.00;99.90;;;;;;5043289;28;19928;-72
2022/01/06 13:33:42;;;;;;;;;;;3.90;99.90;;;;;;5044075;28;19921;-75
2022/01/06 13:36:10;;;;;;;;;;;3.80;99.90;;;;;;5043200;28;19928;-72
2022/01/06 13:38:38;;;;;;;;;;;3.80;99.90;;;;;;5044158;28;19928;-73
2022/01/06 13:41:05;;;;;;;;;;;3.80;99.90;;;;;;5043688;28;19988;-75
2022/01/06 13:43:32;;;;;;;;;;;3.70;99.90;;;;;;5043889;28;19979;-75
2022/01/06 13:46:07;;;;;;;;;;;3.60;99.90;;;;;;5043354;28;19928;-73
2022/01/06 13:48:41;;;;;;;;;;;3.60;99.90;;;;;;5043617;28;19965;-73
2022/01/06 13:51:13;;;;;;;;;;;3.50;99.90;;;;;;5043670;28;20157;-73
2022/01/06 13:53:42;;;;;;;;;;;3.50;99.90;;;;;;5043691;28;19927;-73
2022/01/06 13:56:09;;;;;;;;;;;3.40;99.90;;;;;;5043376;28;19943;-73
2022/01/06 13:58:37;;;;;;;;;;;3.40;99.90;;;;;;5043779;28;20107;-74
2022/01/06 14:01:04;;;;;;;;;;;3.50;99.90;;;;;;5043441;28;19921;-73
2022/01/06 14:03:33;;;;;;;;;;;3.50;99.90;;;;;;5043765;28;19921;-73
2022/01/06 14:06:01;;;;;;;;;;;3.50;99.90;;;;;;5043669;28;19921;-73
2022/01/06 14:08:31;;;;;;;;;;;3.50;99.90;;;;;;5044049;28;19945;-73
2022/01/06 14:10:58;;;;;;;;;;;3.50;99.90;;;;;;5047491;28;19921;-73
2022/01/06 14:13:25;;;;;;;;;;;3.40;99.90;;;;;;5047783;28;20117;-73
2022/01/06 14:15:51;;;;;;;;;;;3.40;99.90;;;;;;5047164;28;19921;-73
2022/01/06 14:18:18;;;;;;;;;;;3.40;99.90;;;;;;5047937;28;19977;-73
2022/01/06 14:20:45;;;;;;;;;;;3.30;99.90;;;;;;5047318;28;19921;-73
2022/01/06 14:23:13;;;;;;;;;;;3.30;99.90;;;;;;5047600;28;19944;-73
2022/01/06 14:25:42;;;;;;;;;;;3.20;99.90;;;;;;5046927;28;19957;-73
2022/01/06 14:28:09;;;;;;;;;;;3.30;99.90;;;;;;5047219;28;19960;-73
2022/01/06 14:30:38;;;;;;;;;;;3.30;99.90;;;;;;5046630;28;19925;-73
2022/01/06 14:33:05;;;;;;;;;;;3.20;99.90;;;;;;5046690;28;19921;-73
2022/01/06 14:35:32;;;;;;;;;;;3.20;99.90;;;;;;5046531;28;20147;-73
2022/01/06 14:37:58;;;;;;;;;;;3.10;99.90;;;;;;5046143;28;19922;-73
2022/01/06 14:40:25;;;;;;;;;;;3.00;99.90;;;;;;5036925;28;20136;-73